sensor_id;sensor_type;location;lat;lon;timestamp;P1;durP1;ratioP1;P2;durP2;ratioP2
3259;SDS011;68938;48.150;14.004;2023-07-29T00:01:51;3.20;;;2.60;;
3259;SDS011;68938;48.150;14.004;2023-07-29T00:04:21;2.87;;;2.70;;
3259;SDS011;68938;48.150;14.004;2023-07-29T00:06:50;6.37;;;3.10;;
3259;SDS011;68938;48.150;14.004;2023-07-29T00:09:17;2.90;;;2.70;;
3259;SDS011;68938;48.150;14.004;2023-07-29T00:11:47;2.90;;;2.70;;
3259;SDS011;68938;48.150;14.004;2023-07-29T00:14:15;2.73;;;2.53;;
3259;SDS011;68938;48.150;14.004;2023-07-29T00:16:42;3.37;;;3.07;;
3259;SDS011;68938;48.150;14.004;2023-07-29T00:19:09;3.27;;;3.00;;
3259;SDS011;68938;48.150;14.004;2023-07-29T00:21:37;3.30;;;3.00;;
3259;SDS011;68938;48.150;14.004;2023-07-29T00:24:04;2.50;;;2.30;;
3259;SDS011;68938;48.150;14.004;2023-07-29T00:26:31;2.90;;;2.63;;
3259;SDS011;68938;48.150;14.004;2023-07-29T00:29:01;2.67;;;2.50;;
3259;SDS011;68938;48.150;14.004;2023-07-29T00:31:29;2.83;;;2.63;;
3259;SDS011;68938;48.150;14.004;2023-07-29T00:33:56;3.30;;;3.00;;
3259;SDS011;68938;48.150;14.004;2023-07-29T00:36:23;4.13;;;2.90;;
3259;SDS011;68938;48.150;14.004;2023-07-29T00:38:51;3.60;;;3.40;;
3259;SDS011;68938;48.150;14.004;2023-07-29T00:41:18;3.87;;;3.67;;
3259;SDS011;68938;48.150;14.004;2023-07-29T00:43:48;4.80;;;2.70;;
3259;SDS011;68938;48.150;14.004;2023-07-29T00:46:15;3.07;;;2.90;;
3259;SDS011;68938;48.150;14.004;2023-07-29T00:48:43;3.33;;;2.80;;
3259;SDS011;68938;48.150;14.004;2023-07-29T00:51:11;2.43;;;2.33;;
3259;SDS011;68938;48.150;14.004;2023-07-29T00:53:38;2.97;;;2.77;;
3259;SDS011;68938;48.150;14.004;2023-07-29T00:56:05;3.43;;;3.13;;
3259;SDS011;68938;48.150;14.004;2023-07-29T00:58:36;3.27;;;3.07;;
3259;SDS011;68938;48.150;14.004;2023-07-29T01:01:03;3.50;;;3.20;;
3259;SDS011;68938;48.150;14.004;2023-07-29T01:03:30;4.03;;;2.80;;
3259;SDS011;68938;48.150;14.004;2023-07-29T01:06:18;5.70;;;3.30;;
3259;SDS011;68938;48.150;14.004;2023-07-29T01:09:04;5.23;;;3.30;;
3259;SDS011;68938;48.150;14.004;2023-07-29T01:14:51;3.87;;;3.67;;
3259;SDS011;68938;48.150;14.004;2023-07-29T01:17:36;3.10;;;2.90;;
3259;SDS011;68938;48.150;14.004;2023-07-29T01:20:16;10.70;;;3.63;;
3259;SDS011;68938;48.150;14.004;2023-07-29T01:22:47;3.67;;;3.47;;
3259;SDS011;68938;48.150;14.004;2023-07-29T01:25:18;3.50;;;3.20;;
3259;SDS011;68938;48.150;14.004;2023-07-29T01:27:48;2.87;;;2.70;;
3259;SDS011;68938;48.150;14.004;2023-07-29T01:30:16;4.00;;;3.70;;
3259;SDS011;68938;48.150;14.004;2023-07-29T01:32:54;3.90;;;3.60;;
3259;SDS011;68938;48.150;14.004;2023-07-29T01:38:30;3.40;;;3.20;;
3259;SDS011;68938;48.150;14.004;2023-07-29T01:41:01;2.77;;;2.57;;
3259;SDS011;68938;48.150;14.004;2023-07-29T01:43:29;3.50;;;2.93;;
3259;SDS011;68938;48.150;14.004;2023-07-29T01:45:59;3.10;;;2.90;;
3259;SDS011;68938;48.150;14.004;2023-07-29T01:48:27;3.00;;;2.90;;
3259;SDS011;68938;48.150;14.004;2023-07-29T01:50:54;3.50;;;3.30;;
3259;SDS011;68938;48.150;14.004;2023-07-29T01:53:22;3.47;;;3.17;;
3259;SDS011;68938;48.150;14.004;2023-07-29T01:55:51;3.10;;;2.90;;
3259;SDS011;68938;48.150;14.004;2023-07-29T01:58:19;3.60;;;3.30;;
3259;SDS011;68938;48.150;14.004;2023-07-29T02:00:46;4.63;;;3.07;;
3259;SDS011;68938;48.150;14.004;2023-07-29T02:03:16;2.90;;;2.70;;
3259;SDS011;68938;48.150;14.004;2023-07-29T02:05:45;4.03;;;3.83;;
3259;SDS011;68938;48.150;14.004;2023-07-29T02:08:12;3.00;;;2.80;;
3259;SDS011;68938;48.150;14.004;2023-07-29T02:10:40;3.50;;;3.20;;
3259;SDS011;68938;48.150;14.004;2023-07-29T02:13:09;4.40;;;3.65;;
3259;SDS011;68938;48.150;14.004;2023-07-29T02:15:38;4.03;;;3.63;;
3259;SDS011;68938;48.150;14.004;2023-07-29T02:18:09;3.70;;;3.50;;
3259;SDS011;68938;48.150;14.004;2023-07-29T02:20:37;3.50;;;3.20;;
3259;SDS011;68938;48.150;14.004;2023-07-29T02:23:05;3.70;;;3.33;;
3259;SDS011;68938;48.150;14.004;2023-07-29T02:25:37;3.97;;;3.67;;
3259;SDS011;68938;48.150;14.004;2023-07-29T02:28:05;3.37;;;3.17;;
3259;SDS011;68938;48.150;14.004;2023-07-29T02:30:33;3.27;;;3.03;;
3259;SDS011;68938;48.150;14.004;2023-07-29T02:33:01;4.13;;;3.73;;
3259;SDS011;68938;48.150;14.004;2023-07-29T02:35:28;3.90;;;3.60;;
3259;SDS011;68938;48.150;14.004;2023-07-29T02:37:55;4.27;;;3.97;;
3259;SDS011;68938;48.150;14.004;2023-07-29T02:40:22;3.60;;;3.30;;
3259;SDS011;68938;48.150;14.004;2023-07-29T02:42:52;4.37;;;4.07;;
3259;SDS011;68938;48.150;14.004;2023-07-29T02:45:20;3.73;;;3.43;;
3259;SDS011;68938;48.150;14.004;2023-07-29T02:47:49;4.47;;;3.43;;
3259;SDS011;68938;48.150;14.004;2023-07-29T02:50:19;4.17;;;3.77;;
3259;SDS011;68938;48.150;14.004;2023-07-29T02:52:46;3.63;;;3.37;;
3259;SDS011;68938;48.150;14.004;2023-07-29T02:55:16;3.63;;;3.33;;
3259;SDS011;68938;48.150;14.004;2023-07-29T02:57:44;3.87;;;3.57;;
3259;SDS011;68938;48.150;14.004;2023-07-29T03:00:12;4.43;;;3.50;;
3259;SDS011;68938;48.150;14.004;2023-07-29T03:02:41;3.10;;;2.90;;
3259;SDS011;68938;48.150;14.004;2023-07-29T03:05:09;3.97;;;3.57;;
3259;SDS011;68938;48.150;14.004;2023-07-29T03:07:36;3.70;;;3.13;;
3259;SDS011;68938;48.150;14.004;2023-07-29T03:10:04;4.10;;;3.67;;
3259;SDS011;68938;48.150;14.004;2023-07-29T03:12:32;4.27;;;3.63;;
3259;SDS011;68938;48.150;14.004;2023-07-29T03:15:00;4.00;;;3.70;;
3259;SDS011;68938;48.150;14.004;2023-07-29T03:17:27;3.80;;;3.50;;
3259;SDS011;68938;48.150;14.004;2023-07-29T03:19:54;3.87;;;3.57;;
3259;SDS011;68938;48.150;14.004;2023-07-29T03:22:25;3.97;;;3.70;;
3259;SDS011;68938;48.150;14.004;2023-07-29T03:24:53;3.40;;;3.20;;
3259;SDS011;68938;48.150;14.004;2023-07-29T03:27:20;3.60;;;3.07;;
3259;SDS011;68938;48.150;14.004;2023-07-29T03:29:48;3.13;;;2.83;;
3259;SDS011;68938;48.150;14.004;2023-07-29T03:32:18;4.50;;;4.03;;
3259;SDS011;68938;48.150;14.004;2023-07-29T03:34:46;4.40;;;4.00;;
3259;SDS011;68938;48.150;14.004;2023-07-29T03:37:13;2.77;;;2.67;;
3259;SDS011;68938;48.150;14.004;2023-07-29T03:39:43;5.07;;;3.97;;
3259;SDS011;68938;48.150;14.004;2023-07-29T03:42:10;3.50;;;3.20;;
3259;SDS011;68938;48.150;14.004;2023-07-29T03:44:39;3.27;;;2.97;;
3259;SDS011;68938;48.150;14.004;2023-07-29T03:47:06;3.63;;;3.30;;
3259;SDS011;68938;48.150;14.004;2023-07-29T03:49:34;3.60;;;3.30;;
3259;SDS011;68938;48.150;14.004;2023-07-29T03:52:01;3.50;;;3.20;;
3259;SDS011;68938;48.150;14.004;2023-07-29T03:54:28;4.47;;;4.03;;
3259;SDS011;68938;48.150;14.004;2023-07-29T03:56:55;3.73;;;3.13;;
3259;SDS011;68938;48.150;14.004;2023-07-29T03:59:22;4.00;;;3.50;;
3259;SDS011;68938;48.150;14.004;2023-07-29T04:01:51;5.33;;;3.20;;
3259;SDS011;68938;48.150;14.004;2023-07-29T04:04:18;3.70;;;3.40;;
3259;SDS011;68938;48.150;14.004;2023-07-29T04:06:46;3.33;;;3.07;;
3259;SDS011;68938;48.150;14.004;2023-07-29T04:09:13;3.57;;;3.37;;
3259;SDS011;68938;48.150;14.004;2023-07-29T04:11:42;3.47;;;3.27;;
3259;SDS011;68938;48.150;14.004;2023-07-29T04:14:09;3.63;;;3.33;;
3259;SDS011;68938;48.150;14.004;2023-07-29T04:16:37;3.67;;;3.37;;
3259;SDS011;68938;48.150;14.004;2023-07-29T04:19:04;2.90;;;2.73;;
3259;SDS011;68938;48.150;14.004;2023-07-29T04:21:31;3.57;;;3.27;;
3259;SDS011;68938;48.150;14.004;2023-07-29T04:24:00;3.80;;;3.50;;
3259;SDS011;68938;48.150;14.004;2023-07-29T04:26:29;3.97;;;3.67;;
3259;SDS011;68938;48.150;14.004;2023-07-29T04:28:56;3.13;;;2.93;;
3259;SDS011;68938;48.150;14.004;2023-07-29T04:31:27;3.67;;;2.93;;
3259;SDS011;68938;48.150;14.004;2023-07-29T04:33:54;3.80;;;3.60;;
3259;SDS011;68938;48.150;14.004;2023-07-29T04:36:25;5.90;;;3.73;;
3259;SDS011;68938;48.150;14.004;2023-07-29T04:38:54;3.83;;;3.47;;
3259;SDS011;68938;48.150;14.004;2023-07-29T04:41:21;6.37;;;3.77;;
3259;SDS011;68938;48.150;14.004;2023-07-29T04:43:48;3.77;;;3.53;;
3259;SDS011;68938;48.150;14.004;2023-07-29T04:46:18;3.43;;;3.20;;
3259;SDS011;68938;48.150;14.004;2023-07-29T04:48:46;4.70;;;3.70;;
3259;SDS011;68938;48.150;14.004;2023-07-29T04:51:13;4.37;;;3.27;;
3259;SDS011;68938;48.150;14.004;2023-07-29T04:53:41;5.90;;;4.33;;
3259;SDS011;68938;48.150;14.004;2023-07-29T04:56:09;4.40;;;4.00;;
3259;SDS011;68938;48.150;14.004;2023-07-29T04:58:37;3.53;;;3.30;;
3259;SDS011;68938;48.150;14.004;2023-07-29T05:01:05;3.47;;;3.17;;
3259;SDS011;68938;48.150;14.004;2023-07-29T05:03:36;4.43;;;3.20;;
3259;SDS011;68938;48.150;14.004;2023-07-29T05:06:03;4.00;;;3.80;;
3259;SDS011;68938;48.150;14.004;2023-07-29T05:08:30;4.00;;;3.07;;
3259;SDS011;68938;48.150;14.004;2023-07-29T05:10:59;4.40;;;4.07;;
3259;SDS011;68938;48.150;14.004;2023-07-29T05:13:26;3.80;;;3.60;;
3259;SDS011;68938;48.150;14.004;2023-07-29T05:15:54;4.40;;;3.50;;
3259;SDS011;68938;48.150;14.004;2023-07-29T05:18:21;3.97;;;3.70;;
3259;SDS011;68938;48.150;14.004;2023-07-29T05:20:48;3.77;;;3.47;;
3259;SDS011;68938;48.150;14.004;2023-07-29T05:23:15;4.13;;;3.70;;
3259;SDS011;68938;48.150;14.004;2023-07-29T05:25:42;3.80;;;3.50;;
3259;SDS011;68938;48.150;14.004;2023-07-29T05:28:09;4.27;;;3.90;;
3259;SDS011;68938;48.150;14.004;2023-07-29T05:30:39;3.80;;;3.50;;
3259;SDS011;68938;48.150;14.004;2023-07-29T05:33:07;3.00;;;2.80;;
3259;SDS011;68938;48.150;14.004;2023-07-29T05:35:34;3.10;;;2.67;;
3259;SDS011;68938;48.150;14.004;2023-07-29T05:38:04;3.50;;;3.20;;
3259;SDS011;68938;48.150;14.004;2023-07-29T05:40:31;3.60;;;3.37;;
3259;SDS011;68938;48.150;14.004;2023-07-29T05:42:59;3.63;;;3.33;;
3259;SDS011;68938;48.150;14.004;2023-07-29T05:45:28;3.67;;;3.47;;
3259;SDS011;68938;48.150;14.004;2023-07-29T05:47:55;3.80;;;3.50;;
3259;SDS011;68938;48.150;14.004;2023-07-29T05:50:23;2.77;;;2.63;;
3259;SDS011;68938;48.150;14.004;2023-07-29T05:52:51;3.73;;;3.43;;
3259;SDS011;68938;48.150;14.004;2023-07-29T05:55:20;3.77;;;3.57;;
3259;SDS011;68938;48.150;14.004;2023-07-29T05:57:47;4.57;;;3.60;;
3259;SDS011;68938;48.150;14.004;2023-07-29T06:00:15;4.53;;;3.50;;
3259;SDS011;68938;48.150;14.004;2023-07-29T06:02:42;6.30;;;3.20;;
3259;SDS011;68938;48.150;14.004;2023-07-29T06:05:09;3.37;;;3.17;;
3259;SDS011;68938;48.150;14.004;2023-07-29T06:07:36;2.33;;;2.23;;
3259;SDS011;68938;48.150;14.004;2023-07-29T06:10:05;3.30;;;3.10;;
3259;SDS011;68938;48.150;14.004;2023-07-29T06:12:33;3.60;;;3.30;;
3259;SDS011;68938;48.150;14.004;2023-07-29T06:15:01;3.50;;;3.30;;
3259;SDS011;68938;48.150;14.004;2023-07-29T06:17:28;3.13;;;2.93;;
3259;SDS011;68938;48.150;14.004;2023-07-29T06:19:55;3.00;;;2.87;;
3259;SDS011;68938;48.150;14.004;2023-07-29T06:22:23;3.40;;;3.20;;
3259;SDS011;68938;48.150;14.004;2023-07-29T06:24:52;2.50;;;2.40;;
3259;SDS011;68938;48.150;14.004;2023-07-29T06:27:22;2.60;;;2.50;;
3259;SDS011;68938;48.150;14.004;2023-07-29T06:29:50;2.37;;;2.27;;
3259;SDS011;68938;48.150;14.004;2023-07-29T06:32:19;3.83;;;2.77;;
3259;SDS011;68938;48.150;14.004;2023-07-29T06:34:49;2.47;;;2.30;;
3259;SDS011;68938;48.150;14.004;2023-07-29T06:37:17;2.83;;;2.63;;
3259;SDS011;68938;48.150;14.004;2023-07-29T06:39:47;6.37;;;2.77;;
3259;SDS011;68938;48.150;14.004;2023-07-29T06:42:14;2.50;;;2.40;;
3259;SDS011;68938;48.150;14.004;2023-07-29T06:44:41;3.27;;;3.03;;
3259;SDS011;68938;48.150;14.004;2023-07-29T06:47:08;3.43;;;2.50;;
3259;SDS011;68938;48.150;14.004;2023-07-29T06:49:36;3.17;;;2.97;;
3259;SDS011;68938;48.150;14.004;2023-07-29T06:52:03;2.87;;;2.67;;
3259;SDS011;68938;48.150;14.004;2023-07-29T06:54:30;2.60;;;2.50;;
3259;SDS011;68938;48.150;14.004;2023-07-29T06:57:00;2.63;;;2.53;;
3259;SDS011;68938;48.150;14.004;2023-07-29T06:59:29;4.10;;;2.77;;
3259;SDS011;68938;48.150;14.004;2023-07-29T07:01:56;3.33;;;2.90;;
3259;SDS011;68938;48.150;14.004;2023-07-29T07:04:24;3.23;;;2.80;;
3259;SDS011;68938;48.150;14.004;2023-07-29T07:06:51;3.20;;;2.90;;
3259;SDS011;68938;48.150;14.004;2023-07-29T07:09:19;3.67;;;3.40;;
3259;SDS011;68938;48.150;14.004;2023-07-29T07:11:47;3.40;;;3.10;;
3259;SDS011;68938;48.150;14.004;2023-07-29T07:14:14;2.80;;;2.60;;
3259;SDS011;68938;48.150;14.004;2023-07-29T07:16:41;3.17;;;2.97;;
3259;SDS011;68938;48.150;14.004;2023-07-29T07:19:08;3.50;;;2.63;;
3259;SDS011;68938;48.150;14.004;2023-07-29T07:21:35;2.57;;;2.40;;
3259;SDS011;68938;48.150;14.004;2023-07-29T07:24:02;3.10;;;2.70;;
3259;SDS011;68938;48.150;14.004;2023-07-29T07:26:29;2.90;;;2.60;;
3259;SDS011;68938;48.150;14.004;2023-07-29T07:28:56;3.00;;;2.80;;
3259;SDS011;68938;48.150;14.004;2023-07-29T07:31:24;2.70;;;2.60;;
3259;SDS011;68938;48.150;14.004;2023-07-29T07:33:51;2.90;;;2.70;;
3259;SDS011;68938;48.150;14.004;2023-07-29T07:36:18;2.27;;;2.17;;
3259;SDS011;68938;48.150;14.004;2023-07-29T07:38:45;2.50;;;2.30;;
3259;SDS011;68938;48.150;14.004;2023-07-29T07:41:12;2.60;;;2.50;;
3259;SDS011;68938;48.150;14.004;2023-07-29T07:43:39;2.50;;;2.10;;
3259;SDS011;68938;48.150;14.004;2023-07-29T07:46:06;3.10;;;2.90;;
3259;SDS011;68938;48.150;14.004;2023-07-29T07:48:33;2.33;;;2.23;;
3259;SDS011;68938;48.150;14.004;2023-07-29T07:51:09;2.90;;;2.30;;
3259;SDS011;68938;48.150;14.004;2023-07-29T07:53:37;2.20;;;2.10;;
3259;SDS011;68938;48.150;14.004;2023-07-29T07:56:04;2.73;;;2.63;;
3259;SDS011;68938;48.150;14.004;2023-07-29T07:58:32;3.03;;;2.77;;
3259;SDS011;68938;48.150;14.004;2023-07-29T08:01:04;2.20;;;2.10;;
3259;SDS011;68938;48.150;14.004;2023-07-29T08:03:35;2.50;;;2.30;;
3259;SDS011;68938;48.150;14.004;2023-07-29T08:07:25;2.70;;;2.50;;
3259;SDS011;68938;48.150;14.004;2023-07-29T08:09:52;2.20;;;2.10;;
3259;SDS011;68938;48.150;14.004;2023-07-29T08:12:19;2.30;;;2.20;;
3259;SDS011;68938;48.150;14.004;2023-07-29T08:14:46;2.80;;;2.60;;
3259;SDS011;68938;48.150;14.004;2023-07-29T08:17:13;2.50;;;2.40;;
3259;SDS011;68938;48.150;14.004;2023-07-29T08:19:40;4.17;;;2.40;;
3259;SDS011;68938;48.150;14.004;2023-07-29T08:22:07;2.60;;;2.40;;
3259;SDS011;68938;48.150;14.004;2023-07-29T08:24:34;2.53;;;2.33;;
3259;SDS011;68938;48.150;14.004;2023-07-29T08:27:02;2.30;;;2.13;;
3259;SDS011;68938;48.150;14.004;2023-07-29T08:29:29;2.80;;;2.60;;
3259;SDS011;68938;48.150;14.004;2023-07-29T08:31:57;2.07;;;1.97;;
3259;SDS011;68938;48.150;14.004;2023-07-29T08:34:24;3.40;;;2.10;;
3259;SDS011;68938;48.150;14.004;2023-07-29T08:36:51;2.23;;;2.10;;
3259;SDS011;68938;48.150;14.004;2023-07-29T08:39:18;2.07;;;1.97;;
3259;SDS011;68938;48.150;14.004;2023-07-29T08:44:46;1.90;;;1.80;;
3259;SDS011;68938;48.150;14.004;2023-07-29T08:47:16;2.20;;;2.10;;
3259;SDS011;68938;48.150;14.004;2023-07-29T08:49:44;2.40;;;2.20;;
3259;SDS011;68938;48.150;14.004;2023-07-29T08:52:13;2.33;;;2.23;;
3259;SDS011;68938;48.150;14.004;2023-07-29T08:54:42;2.10;;;2.00;;
3259;SDS011;68938;48.150;14.004;2023-07-29T08:57:09;1.90;;;1.80;;
3259;SDS011;68938;48.150;14.004;2023-07-29T08:59:37;1.70;;;1.60;;
3259;SDS011;68938;48.150;14.004;2023-07-29T09:02:05;2.37;;;2.27;;
3259;SDS011;68938;48.150;14.004;2023-07-29T09:04:34;1.80;;;1.70;;
3259;SDS011;68938;48.150;14.004;2023-07-29T09:07:01;2.20;;;2.10;;
3259;SDS011;68938;48.150;14.004;2023-07-29T09:09:29;2.60;;;2.07;;
3259;SDS011;68938;48.150;14.004;2023-07-29T09:11:56;2.03;;;1.93;;
3259;SDS011;68938;48.150;14.004;2023-07-29T09:14:25;2.10;;;2.00;;
3259;SDS011;68938;48.150;14.004;2023-07-29T09:16:54;2.30;;;2.20;;
3259;SDS011;68938;48.150;14.004;2023-07-29T09:19:22;1.83;;;1.73;;
3259;SDS011;68938;48.150;14.004;2023-07-29T09:21:52;1.83;;;1.73;;
3259;SDS011;68938;48.150;14.004;2023-07-29T09:24:21;3.23;;;1.90;;
3259;SDS011;68938;48.150;14.004;2023-07-29T09:26:51;2.10;;;2.00;;
3259;SDS011;68938;48.150;14.004;2023-07-29T09:29:21;2.20;;;2.00;;
3259;SDS011;68938;48.150;14.004;2023-07-29T09:31:50;2.07;;;1.97;;
3259;SDS011;68938;48.150;14.004;2023-07-29T09:34:18;2.20;;;2.10;;
3259;SDS011;68938;48.150;14.004;2023-07-29T09:36:46;1.87;;;1.77;;
3259;SDS011;68938;48.150;14.004;2023-07-29T09:39:13;2.00;;;1.90;;
3259;SDS011;68938;48.150;14.004;2023-07-29T09:41:40;1.80;;;1.70;;
3259;SDS011;68938;48.150;14.004;2023-07-29T09:44:07;2.47;;;2.33;;
3259;SDS011;68938;48.150;14.004;2023-07-29T09:46:35;2.20;;;2.10;;
3259;SDS011;68938;48.150;14.004;2023-07-29T09:49:05;2.07;;;1.90;;
3259;SDS011;68938;48.150;14.004;2023-07-29T09:51:38;2.10;;;2.00;;
3259;SDS011;68938;48.150;14.004;2023-07-29T09:54:06;2.70;;;2.50;;
3259;SDS011;68938;48.150;14.004;2023-07-29T09:56:33;2.27;;;2.17;;
3259;SDS011;68938;48.150;14.004;2023-07-29T09:59:06;1.73;;;1.70;;
3259;SDS011;68938;48.150;14.004;2023-07-29T10:01:33;2.40;;;2.30;;
3259;SDS011;68938;48.150;14.004;2023-07-29T10:04:02;2.77;;;2.67;;
3259;SDS011;68938;48.150;14.004;2023-07-29T10:06:31;2.50;;;2.40;;
3259;SDS011;68938;48.150;14.004;2023-07-29T10:09:03;2.63;;;2.43;;
3259;SDS011;68938;48.150;14.004;2023-07-29T10:11:32;2.30;;;2.20;;
3259;SDS011;68938;48.150;14.004;2023-07-29T10:14:02;2.50;;;2.30;;
3259;SDS011;68938;48.150;14.004;2023-07-29T10:16:36;3.60;;;2.90;;
3259;SDS011;68938;48.150;14.004;2023-07-29T10:19:04;2.93;;;2.73;;
3259;SDS011;68938;48.150;14.004;2023-07-29T10:21:34;3.07;;;2.90;;
3259;SDS011;68938;48.150;14.004;2023-07-29T10:24:06;2.47;;;2.30;;
3259;SDS011;68938;48.150;14.004;2023-07-29T10:26:41;2.60;;;2.50;;
3259;SDS011;68938;48.150;14.004;2023-07-29T10:29:13;2.40;;;2.20;;
3259;SDS011;68938;48.150;14.004;2023-07-29T10:31:42;2.40;;;2.30;;
3259;SDS011;68938;48.150;14.004;2023-07-29T10:34:11;2.50;;;1.80;;
3259;SDS011;68938;48.150;14.004;2023-07-29T10:36:40;2.10;;;2.00;;
3259;SDS011;68938;48.150;14.004;2023-07-29T10:39:08;2.53;;;2.40;;
3259;SDS011;68938;48.150;14.004;2023-07-29T10:42:09;2.57;;;2.20;;
3259;SDS011;68938;48.150;14.004;2023-07-29T10:47:11;2.27;;;2.17;;
3259;SDS011;68938;48.150;14.004;2023-07-29T10:49:46;1.97;;;1.87;;
3259;SDS011;68938;48.150;14.004;2023-07-29T10:52:17;2.30;;;2.20;;
3259;SDS011;68938;48.150;14.004;2023-07-29T10:55:00;2.87;;;2.57;;
3259;SDS011;68938;48.150;14.004;2023-07-29T10:57:37;2.10;;;2.00;;
3259;SDS011;68938;48.150;14.004;2023-07-29T11:00:08;2.80;;;2.60;;
3259;SDS011;68938;48.150;14.004;2023-07-29T11:02:37;2.20;;;2.10;;
3259;SDS011;68938;48.150;14.004;2023-07-29T11:05:05;2.47;;;2.23;;
3259;SDS011;68938;48.150;14.004;2023-07-29T11:07:45;2.30;;;2.10;;
3259;SDS011;68938;48.150;14.004;2023-07-29T11:10:14;2.40;;;2.30;;
3259;SDS011;68938;48.150;14.004;2023-07-29T11:12:46;2.03;;;1.93;;
3259;SDS011;68938;48.150;14.004;2023-07-29T11:17:51;2.77;;;2.57;;
3259;SDS011;68938;48.150;14.004;2023-07-29T11:20:23;2.40;;;2.20;;
3259;SDS011;68938;48.150;14.004;2023-07-29T11:22:56;2.73;;;2.57;;
3259;SDS011;68938;48.150;14.004;2023-07-29T11:25:30;2.40;;;2.20;;
3259;SDS011;68938;48.150;14.004;2023-07-29T11:27:58;3.17;;;2.50;;
3259;SDS011;68938;48.150;14.004;2023-07-29T11:30:32;2.07;;;1.97;;
3259;SDS011;68938;48.150;14.004;2023-07-29T11:32:59;2.43;;;2.33;;
3259;SDS011;68938;48.150;14.004;2023-07-29T11:35:27;2.43;;;2.33;;
3259;SDS011;68938;48.150;14.004;2023-07-29T11:37:54;2.33;;;2.23;;
3259;SDS011;68938;48.150;14.004;2023-07-29T11:40:22;2.47;;;2.37;;
3259;SDS011;68938;48.150;14.004;2023-07-29T11:42:50;2.33;;;2.23;;
3259;SDS011;68938;48.150;14.004;2023-07-29T11:45:21;2.70;;;2.60;;
3259;SDS011;68938;48.150;14.004;2023-07-29T11:48:01;2.40;;;2.30;;
3259;SDS011;68938;48.150;14.004;2023-07-29T11:50:29;2.83;;;2.63;;
3259;SDS011;68938;48.150;14.004;2023-07-29T11:52:58;2.70;;;2.50;;
3259;SDS011;68938;48.150;14.004;2023-07-29T11:55:25;3.20;;;3.00;;
3259;SDS011;68938;48.150;14.004;2023-07-29T11:57:53;2.70;;;2.60;;
3259;SDS011;68938;48.150;14.004;2023-07-29T12:00:20;2.20;;;2.10;;
3259;SDS011;68938;48.150;14.004;2023-07-29T12:02:49;2.83;;;2.60;;
3259;SDS011;68938;48.150;14.004;2023-07-29T12:05:18;3.13;;;2.93;;
3259;SDS011;68938;48.150;14.004;2023-07-29T12:07:47;2.17;;;2.07;;
3259;SDS011;68938;48.150;14.004;2023-07-29T12:10:16;2.50;;;2.40;;
3259;SDS011;68938;48.150;14.004;2023-07-29T12:12:44;2.70;;;2.50;;
3259;SDS011;68938;48.150;14.004;2023-07-29T12:15:13;2.20;;;2.10;;
3259;SDS011;68938;48.150;14.004;2023-07-29T12:17:40;3.67;;;2.70;;
3259;SDS011;68938;48.150;14.004;2023-07-29T12:20:09;2.87;;;2.60;;
3259;SDS011;68938;48.150;14.004;2023-07-29T12:22:37;2.93;;;2.73;;
3259;SDS011;68938;48.150;14.004;2023-07-29T12:25:04;2.53;;;2.33;;
3259;SDS011;68938;48.150;14.004;2023-07-29T12:27:32;2.97;;;2.77;;
3259;SDS011;68938;48.150;14.004;2023-07-29T12:30:00;2.57;;;2.47;;
3259;SDS011;68938;48.150;14.004;2023-07-29T12:32:28;2.73;;;2.20;;
3259;SDS011;68938;48.150;14.004;2023-07-29T12:34:57;2.50;;;2.40;;
3259;SDS011;68938;48.150;14.004;2023-07-29T12:37:32;2.60;;;2.50;;
3259;SDS011;68938;48.150;14.004;2023-07-29T12:39:59;3.00;;;2.77;;
3259;SDS011;68938;48.150;14.004;2023-07-29T12:42:28;2.37;;;2.27;;
3259;SDS011;68938;48.150;14.004;2023-07-29T12:44:55;2.97;;;2.87;;
3259;SDS011;68938;48.150;14.004;2023-07-29T12:47:22;2.80;;;2.70;;
3259;SDS011;68938;48.150;14.004;2023-07-29T12:49:50;2.37;;;2.27;;
3259;SDS011;68938;48.150;14.004;2023-07-29T12:52:18;2.47;;;2.27;;
3259;SDS011;68938;48.150;14.004;2023-07-29T12:54:45;3.77;;;2.40;;
3259;SDS011;68938;48.150;14.004;2023-07-29T12:57:12;2.50;;;2.40;;
3259;SDS011;68938;48.150;14.004;2023-07-29T12:59:40;2.40;;;2.30;;
3259;SDS011;68938;48.150;14.004;2023-07-29T13:02:07;2.63;;;2.43;;
3259;SDS011;68938;48.150;14.004;2023-07-29T13:04:34;3.47;;;3.27;;
3259;SDS011;68938;48.150;14.004;2023-07-29T13:07:02;2.77;;;2.53;;
3259;SDS011;68938;48.150;14.004;2023-07-29T13:09:29;2.40;;;2.30;;
3259;SDS011;68938;48.150;14.004;2023-07-29T13:11:56;3.07;;;2.87;;
3259;SDS011;68938;48.150;14.004;2023-07-29T13:14:23;2.97;;;2.77;;
3259;SDS011;68938;48.150;14.004;2023-07-29T13:16:52;3.17;;;2.97;;
3259;SDS011;68938;48.150;14.004;2023-07-29T13:19:19;4.40;;;3.40;;
3259;SDS011;68938;48.150;14.004;2023-07-29T13:21:46;2.93;;;2.73;;
3259;SDS011;68938;48.150;14.004;2023-07-29T13:24:13;3.03;;;2.83;;
3259;SDS011;68938;48.150;14.004;2023-07-29T13:26:42;10.67;;;2.70;;
3259;SDS011;68938;48.150;14.004;2023-07-29T13:29:11;9.30;;;3.00;;
3259;SDS011;68938;48.150;14.004;2023-07-29T13:31:38;8.27;;;3.30;;
3259;SDS011;68938;48.150;14.004;2023-07-29T13:34:05;2.60;;;2.27;;
3259;SDS011;68938;48.150;14.004;2023-07-29T13:36:32;9.90;;;3.13;;
3259;SDS011;68938;48.150;14.004;2023-07-29T13:39:00;4.97;;;3.03;;
3259;SDS011;68938;48.150;14.004;2023-07-29T13:41:27;4.97;;;2.37;;
3259;SDS011;68938;48.150;14.004;2023-07-29T13:43:56;3.43;;;1.97;;
3259;SDS011;68938;48.150;14.004;2023-07-29T13:46:25;4.60;;;2.20;;
3259;SDS011;68938;48.150;14.004;2023-07-29T13:48:52;5.93;;;2.20;;
3259;SDS011;68938;48.150;14.004;2023-07-29T13:51:19;2.80;;;2.00;;
3259;SDS011;68938;48.150;14.004;2023-07-29T13:53:50;3.17;;;1.73;;
3259;SDS011;68938;48.150;14.004;2023-07-29T13:56:18;1.87;;;1.77;;
3259;SDS011;68938;48.150;14.004;2023-07-29T13:58:47;3.87;;;2.57;;
3259;SDS011;68938;48.150;14.004;2023-07-29T14:01:16;1.80;;;1.70;;
3259;SDS011;68938;48.150;14.004;2023-07-29T14:03:45;2.30;;;2.00;;
3259;SDS011;68938;48.150;14.004;2023-07-29T14:06:16;4.10;;;2.50;;
3259;SDS011;68938;48.150;14.004;2023-07-29T14:08:44;2.20;;;2.00;;
3259;SDS011;68938;48.150;14.004;2023-07-29T14:11:14;1.27;;;1.20;;
3259;SDS011;68938;48.150;14.004;2023-07-29T14:13:41;2.70;;;1.90;;
3259;SDS011;68938;48.150;14.004;2023-07-29T14:16:08;1.67;;;1.50;;
3259;SDS011;68938;48.150;14.004;2023-07-29T14:18:35;1.80;;;1.57;;
3259;SDS011;68938;48.150;14.004;2023-07-29T14:21:02;1.77;;;1.67;;
3259;SDS011;68938;48.150;14.004;2023-07-29T14:23:29;3.40;;;2.03;;
3259;SDS011;68938;48.150;14.004;2023-07-29T14:25:57;1.80;;;1.70;;
3259;SDS011;68938;48.150;14.004;2023-07-29T14:28:24;1.50;;;1.40;;
3259;SDS011;68938;48.150;14.004;2023-07-29T14:30:51;1.93;;;1.80;;
3259;SDS011;68938;48.150;14.004;2023-07-29T14:33:19;3.20;;;2.03;;
3259;SDS011;68938;48.150;14.004;2023-07-29T14:35:46;2.93;;;2.37;;
3259;SDS011;68938;48.150;14.004;2023-07-29T14:38:14;2.63;;;1.93;;
3259;SDS011;68938;48.150;14.004;2023-07-29T14:40:42;2.00;;;1.70;;
3259;SDS011;68938;48.150;14.004;2023-07-29T14:43:10;2.10;;;1.87;;
3259;SDS011;68938;48.150;14.004;2023-07-29T14:45:38;1.60;;;1.50;;
3259;SDS011;68938;48.150;14.004;2023-07-29T14:48:05;1.90;;;1.80;;
3259;SDS011;68938;48.150;14.004;2023-07-29T14:50:35;3.63;;;2.07;;
3259;SDS011;68938;48.150;14.004;2023-07-29T14:53:02;1.83;;;1.50;;
3259;SDS011;68938;48.150;14.004;2023-07-29T14:55:30;4.27;;;2.20;;
3259;SDS011;68938;48.150;14.004;2023-07-29T14:58:03;1.93;;;1.83;;
3259;SDS011;68938;48.150;14.004;2023-07-29T15:00:30;2.73;;;1.70;;
3259;SDS011;68938;48.150;14.004;2023-07-29T15:02:57;1.53;;;1.43;;
3259;SDS011;68938;48.150;14.004;2023-07-29T15:05:26;1.67;;;1.57;;
3259;SDS011;68938;48.150;14.004;2023-07-29T15:07:53;2.90;;;1.83;;
3259;SDS011;68938;48.150;14.004;2023-07-29T15:10:21;2.87;;;1.87;;
3259;SDS011;68938;48.150;14.004;2023-07-29T15:12:48;2.40;;;1.63;;